sensor_id;sensor_type;location;lat;lon;timestamp;P1;durP1;ratioP1;P2;durP2;ratioP2
69900;SDS011;57183;50.930;5.406;2022-07-18T00:01:57;3.65;;;1.70;;
69900;SDS011;57183;50.930;5.406;2022-07-18T00:04:24;4.22;;;1.73;;
69900;SDS011;57183;50.930;5.406;2022-07-18T00:06:51;3.35;;;1.90;;
69900;SDS011;57183;50.930;5.406;2022-07-18T00:09:17;2.53;;;1.60;;
69900;SDS011;57183;50.930;5.406;2022-07-18T00:11:44;3.85;;;1.85;;
69900;SDS011;57183;50.930;5.406;2022-07-18T00:14:10;3.35;;;1.58;;
69900;SDS011;57183;50.930;5.406;2022-07-18T00:16:36;4.07;;;1.85;;
69900;SDS011;57183;50.930;5.406;2022-07-18T00:19:02;1.95;;;1.63;;
69900;SDS011;57183;50.930;5.406;2022-07-18T00:21:28;4.75;;;1.98;;
69900;SDS011;57183;50.930;5.406;2022-07-18T00:23:54;3.40;;;2.10;;
69900;SDS011;57183;50.930;5.406;2022-07-18T00:26:20;4.10;;;2.20;;
69900;SDS011;57183;50.930;5.406;2022-07-18T00:28:46;2.78;;;1.98;;
69900;SDS011;57183;50.930;5.406;2022-07-18T00:31:12;3.65;;;1.70;;
69900;SDS011;57183;50.930;5.406;2022-07-18T00:33:37;2.20;;;1.85;;
69900;SDS011;57183;50.930;5.406;2022-07-18T00:36:03;3.00;;;2.03;;
69900;SDS011;57183;50.930;5.406;2022-07-18T00:38:29;6.80;;;1.90;;
69900;SDS011;57183;50.930;5.406;2022-07-18T00:40:55;2.85;;;1.75;;
69900;SDS011;57183;50.930;5.406;2022-07-18T00:43:20;4.05;;;2.05;;
69900;SDS011;57183;50.930;5.406;2022-07-18T00:45:46;7.75;;;1.60;;
69900;SDS011;57183;50.930;5.406;2022-07-18T00:48:13;4.13;;;1.70;;
69900;SDS011;57183;50.930;5.406;2022-07-18T00:50:40;2.63;;;1.60;;
69900;SDS011;57183;50.930;5.406;2022-07-18T00:53:07;3.55;;;1.90;;
69900;SDS011;57183;50.930;5.406;2022-07-18T00:55:36;4.13;;;2.00;;
69900;SDS011;57183;50.930;5.406;2022-07-18T00:58:03;2.85;;;2.20;;
69900;SDS011;57183;50.930;5.406;2022-07-18T01:00:29;4.18;;;2.10;;
69900;SDS011;57183;50.930;5.406;2022-07-18T01:03:12;4.25;;;1.90;;
69900;SDS011;57183;50.930;5.406;2022-07-18T01:05:38;5.18;;;1.92;;
69900;SDS011;57183;50.930;5.406;2022-07-18T01:08:04;3.20;;;2.05;;
69900;SDS011;57183;50.930;5.406;2022-07-18T01:10:30;4.90;;;1.73;;
69900;SDS011;57183;50.930;5.406;2022-07-18T01:12:55;3.50;;;1.83;;
69900;SDS011;57183;50.930;5.406;2022-07-18T01:15:21;4.93;;;2.35;;
69900;SDS011;57183;50.930;5.406;2022-07-18T01:17:46;2.65;;;1.60;;
69900;SDS011;57183;50.930;5.406;2022-07-18T01:20:14;3.63;;;1.65;;
69900;SDS011;57183;50.930;5.406;2022-07-18T01:22:40;3.40;;;2.17;;
69900;SDS011;57183;50.930;5.406;2022-07-18T01:25:07;3.90;;;2.05;;
69900;SDS011;57183;50.930;5.406;2022-07-18T01:27:33;2.50;;;1.70;;
69900;SDS011;57183;50.930;5.406;2022-07-18T01:29:59;2.72;;;1.60;;
69900;SDS011;57183;50.930;5.406;2022-07-18T01:32:25;5.63;;;1.90;;
69900;SDS011;57183;50.930;5.406;2022-07-18T01:34:51;2.50;;;1.83;;
69900;SDS011;57183;50.930;5.406;2022-07-18T01:37:16;7.30;;;2.00;;
69900;SDS011;57183;50.930;5.406;2022-07-18T01:39:43;2.55;;;1.70;;
69900;SDS011;57183;50.930;5.406;2022-07-18T01:42:10;5.13;;;2.22;;
69900;SDS011;57183;50.930;5.406;2022-07-18T01:44:37;2.47;;;2.03;;
69900;SDS011;57183;50.930;5.406;2022-07-18T01:47:04;3.35;;;2.15;;
69900;SDS011;57183;50.930;5.406;2022-07-18T01:49:31;5.00;;;1.85;;
69900;SDS011;57183;50.930;5.406;2022-07-18T01:51:57;3.30;;;1.77;;
69900;SDS011;57183;50.930;5.406;2022-07-18T01:54:24;2.97;;;1.50;;
69900;SDS011;57183;50.930;5.406;2022-07-18T01:56:54;3.47;;;1.95;;
69900;SDS011;57183;50.930;5.406;2022-07-18T01:59:21;3.20;;;1.90;;
69900;SDS011;57183;50.930;5.406;2022-07-18T02:01:47;4.32;;;2.08;;
69900;SDS011;57183;50.930;5.406;2022-07-18T02:04:13;3.97;;;2.20;;
69900;SDS011;57183;50.930;5.406;2022-07-18T02:06:39;5.82;;;2.58;;
69900;SDS011;57183;50.930;5.406;2022-07-18T02:09:05;4.72;;;1.95;;
69900;SDS011;57183;50.930;5.406;2022-07-18T02:11:32;4.55;;;2.25;;
69900;SDS011;57183;50.930;5.406;2022-07-18T02:13:58;4.28;;;1.70;;
69900;SDS011;57183;50.930;5.406;2022-07-18T02:16:24;3.65;;;2.10;;
69900;SDS011;57183;50.930;5.406;2022-07-18T02:18:50;3.42;;;2.30;;
69900;SDS011;57183;50.930;5.406;2022-07-18T02:21:17;4.22;;;1.77;;
69900;SDS011;57183;50.930;5.406;2022-07-18T02:23:43;5.57;;;2.60;;
69900;SDS011;57183;50.930;5.406;2022-07-18T02:26:09;5.50;;;2.75;;
69900;SDS011;57183;50.930;5.406;2022-07-18T02:28:35;4.63;;;2.60;;
69900;SDS011;57183;50.930;5.406;2022-07-18T02:31:02;4.93;;;2.42;;
69900;SDS011;57183;50.930;5.406;2022-07-18T02:33:29;4.43;;;1.90;;
69900;SDS011;57183;50.930;5.406;2022-07-18T02:35:54;5.30;;;2.25;;
69900;SDS011;57183;50.930;5.406;2022-07-18T02:38:20;3.95;;;2.10;;
69900;SDS011;57183;50.930;5.406;2022-07-18T02:40:46;3.67;;;1.85;;
69900;SDS011;57183;50.930;5.406;2022-07-18T02:43:12;2.92;;;2.00;;
69900;SDS011;57183;50.930;5.406;2022-07-18T02:45:37;2.97;;;1.90;;
69900;SDS011;57183;50.930;5.406;2022-07-18T02:48:03;5.50;;;2.88;;
69900;SDS011;57183;50.930;5.406;2022-07-18T02:50:29;2.80;;;2.35;;
69900;SDS011;57183;50.930;5.406;2022-07-18T02:52:55;3.83;;;1.90;;
69900;SDS011;57183;50.930;5.406;2022-07-18T02:55:21;2.67;;;2.13;;
69900;SDS011;57183;50.930;5.406;2022-07-18T02:57:48;5.18;;;2.20;;
69900;SDS011;57183;50.930;5.406;2022-07-18T03:00:14;5.03;;;2.90;;
69900;SDS011;57183;50.930;5.406;2022-07-18T03:02:41;3.85;;;2.00;;
69900;SDS011;57183;50.930;5.406;2022-07-18T03:05:07;2.40;;;1.95;;
69900;SDS011;57183;50.930;5.406;2022-07-18T03:07:33;2.85;;;1.85;;
69900;SDS011;57183;50.930;5.406;2022-07-18T03:09:59;4.88;;;2.08;;
69900;SDS011;57183;50.930;5.406;2022-07-18T03:12:24;3.13;;;1.98;;
69900;SDS011;57183;50.930;5.406;2022-07-18T03:14:50;5.00;;;2.03;;
69900;SDS011;57183;50.930;5.406;2022-07-18T03:17:16;2.50;;;2.00;;
69900;SDS011;57183;50.930;5.406;2022-07-18T03:19:42;4.75;;;1.98;;
69900;SDS011;57183;50.930;5.406;2022-07-18T03:22:07;5.90;;;2.20;;
69900;SDS011;57183;50.930;5.406;2022-07-18T03:24:33;4.93;;;2.40;;
69900;SDS011;57183;50.930;5.406;2022-07-18T03:26:59;9.48;;;2.35;;
69900;SDS011;57183;50.930;5.406;2022-07-18T03:29:24;2.88;;;2.33;;
69900;SDS011;57183;50.930;5.406;2022-07-18T03:31:50;4.13;;;2.40;;
69900;SDS011;57183;50.930;5.406;2022-07-18T03:34:16;3.85;;;2.53;;
69900;SDS011;57183;50.930;5.406;2022-07-18T03:36:42;2.70;;;2.38;;
69900;SDS011;57183;50.930;5.406;2022-07-18T03:39:08;4.97;;;2.22;;
69900;SDS011;57183;50.930;5.406;2022-07-18T03:41:35;6.25;;;2.47;;
69900;SDS011;57183;50.930;5.406;2022-07-18T03:44:02;3.58;;;2.17;;
69900;SDS011;57183;50.930;5.406;2022-07-18T03:46:28;3.38;;;2.38;;
69900;SDS011;57183;50.930;5.406;2022-07-18T03:48:54;5.85;;;2.22;;
69900;SDS011;57183;50.930;5.406;2022-07-18T03:51:20;6.03;;;2.38;;
69900;SDS011;57183;50.930;5.406;2022-07-18T03:53:46;4.60;;;2.78;;
69900;SDS011;57183;50.930;5.406;2022-07-18T03:56:12;5.35;;;2.80;;
69900;SDS011;57183;50.930;5.406;2022-07-18T03:58:37;7.80;;;2.72;;
69900;SDS011;57183;50.930;5.406;2022-07-18T04:01:03;2.40;;;2.08;;
69900;SDS011;57183;50.930;5.406;2022-07-18T04:03:29;4.68;;;2.42;;
69900;SDS011;57183;50.930;5.406;2022-07-18T04:05:55;4.60;;;2.60;;
69900;SDS011;57183;50.930;5.406;2022-07-18T04:08:20;8.38;;;2.40;;
69900;SDS011;57183;50.930;5.406;2022-07-18T04:10:46;7.82;;;2.05;;
69900;SDS011;57183;50.930;5.406;2022-07-18T04:13:12;3.35;;;2.30;;
69900;SDS011;57183;50.930;5.406;2022-07-18T04:15:38;5.40;;;2.05;;
69900;SDS011;57183;50.930;5.406;2022-07-18T04:18:05;5.60;;;2.15;;
69900;SDS011;57183;50.930;5.406;2022-07-18T04:20:32;5.82;;;2.90;;
69900;SDS011;57183;50.930;5.406;2022-07-18T04:23:00;4.57;;;2.65;;
69900;SDS011;57183;50.930;5.406;2022-07-18T04:25:28;4.35;;;2.53;;
69900;SDS011;57183;50.930;5.406;2022-07-18T04:27:58;3.45;;;2.65;;
69900;SDS011;57183;50.930;5.406;2022-07-18T04:30:24;3.50;;;2.28;;
69900;SDS011;57183;50.930;5.406;2022-07-18T04:32:51;5.22;;;2.53;;
69900;SDS011;57183;50.930;5.406;2022-07-18T04:35:17;3.08;;;2.35;;
69900;SDS011;57183;50.930;5.406;2022-07-18T04:37:43;6.60;;;3.05;;
69900;SDS011;57183;50.930;5.406;2022-07-18T04:40:09;2.95;;;2.35;;
69900;SDS011;57183;50.930;5.406;2022-07-18T04:42:36;3.63;;;2.38;;
69900;SDS011;57183;50.930;5.406;2022-07-18T04:45:02;5.60;;;2.97;;
69900;SDS011;57183;50.930;5.406;2022-07-18T04:47:29;3.22;;;2.13;;
69900;SDS011;57183;50.930;5.406;2022-07-18T04:49:55;7.50;;;2.90;;
69900;SDS011;57183;50.930;5.406;2022-07-18T04:52:21;4.53;;;2.13;;
69900;SDS011;57183;50.930;5.406;2022-07-18T04:54:47;3.33;;;2.15;;
69900;SDS011;57183;50.930;5.406;2022-07-18T04:57:13;3.75;;;2.55;;
69900;SDS011;57183;50.930;5.406;2022-07-18T04:59:42;3.90;;;2.60;;
69900;SDS011;57183;50.930;5.406;2022-07-18T05:02:11;2.92;;;2.63;;
69900;SDS011;57183;50.930;5.406;2022-07-18T05:04:37;4.03;;;2.63;;
69900;SDS011;57183;50.930;5.406;2022-07-18T05:07:04;5.43;;;3.08;;
69900;SDS011;57183;50.930;5.406;2022-07-18T05:09:31;4.93;;;2.63;;
69900;SDS011;57183;50.930;5.406;2022-07-18T05:11:57;6.95;;;2.63;;
69900;SDS011;57183;50.930;5.406;2022-07-18T05:14:23;4.72;;;2.85;;
69900;SDS011;57183;50.930;5.406;2022-07-18T05:16:48;5.25;;;3.00;;
69900;SDS011;57183;50.930;5.406;2022-07-18T05:19:14;3.83;;;3.00;;
69900;SDS011;57183;50.930;5.406;2022-07-18T05:21:41;7.55;;;3.10;;
69900;SDS011;57183;50.930;5.406;2022-07-18T05:24:07;7.30;;;2.67;;
69900;SDS011;57183;50.930;5.406;2022-07-18T05:26:33;5.93;;;3.00;;
69900;SDS011;57183;50.930;5.406;2022-07-18T05:28:59;7.18;;;2.80;;
69900;SDS011;57183;50.930;5.406;2022-07-18T05:31:24;8.52;;;3.00;;
69900;SDS011;57183;50.930;5.406;2022-07-18T05:33:50;4.18;;;2.83;;
69900;SDS011;57183;50.930;5.406;2022-07-18T05:36:15;5.30;;;3.60;;
69900;SDS011;57183;50.930;5.406;2022-07-18T05:38:41;9.85;;;3.10;;
69900;SDS011;57183;50.930;5.406;2022-07-18T05:41:07;7.13;;;3.80;;
69900;SDS011;57183;50.930;5.406;2022-07-18T05:43:33;12.43;;;3.28;;
69900;SDS011;57183;50.930;5.406;2022-07-18T05:45:58;7.50;;;3.67;;
69900;SDS011;57183;50.930;5.406;2022-07-18T05:48:24;7.00;;;3.08;;
69900;SDS011;57183;50.930;5.406;2022-07-18T05:50:50;7.40;;;3.42;;
69900;SDS011;57183;50.930;5.406;2022-07-18T05:53:15;7.55;;;3.25;;
69900;SDS011;57183;50.930;5.406;2022-07-18T05:55:41;5.68;;;3.00;;
69900;SDS011;57183;50.930;5.406;2022-07-18T05:58:07;7.80;;;3.28;;
69900;SDS011;57183;50.930;5.406;2022-07-18T06:00:32;7.03;;;3.08;;
69900;SDS011;57183;50.930;5.406;2022-07-18T06:02:58;8.27;;;3.35;;
69900;SDS011;57183;50.930;5.406;2022-07-18T06:05:25;8.40;;;4.03;;
69900;SDS011;57183;50.930;5.406;2022-07-18T06:07:51;10.30;;;3.60;;
69900;SDS011;57183;50.930;5.406;2022-07-18T06:10:18;9.70;;;3.75;;
69900;SDS011;57183;50.930;5.406;2022-07-18T06:12:44;5.68;;;3.30;;
69900;SDS011;57183;50.930;5.406;2022-07-18T06:15:10;7.35;;;3.42;;
69900;SDS011;57183;50.930;5.406;2022-07-18T06:17:36;10.45;;;3.10;;
69900;SDS011;57183;50.930;5.406;2022-07-18T06:20:02;8.50;;;3.30;;
69900;SDS011;57183;50.930;5.406;2022-07-18T06:22:30;14.13;;;3.47;;
69900;SDS011;57183;50.930;5.406;2022-07-18T06:24:56;4.85;;;3.00;;
69900;SDS011;57183;50.930;5.406;2022-07-18T06:27:21;12.57;;;3.03;;
69900;SDS011;57183;50.930;5.406;2022-07-18T06:29:47;9.60;;;3.47;;
69900;SDS011;57183;50.930;5.406;2022-07-18T06:32:13;9.40;;;3.25;;
69900;SDS011;57183;50.930;5.406;2022-07-18T06:34:38;6.20;;;3.33;;
69900;SDS011;57183;50.930;5.406;2022-07-18T06:37:04;4.90;;;2.67;;
69900;SDS011;57183;50.930;5.406;2022-07-18T06:39:29;8.07;;;3.00;;
69900;SDS011;57183;50.930;5.406;2022-07-18T06:41:55;5.88;;;2.83;;
69900;SDS011;57183;50.930;5.406;2022-07-18T06:44:21;4.28;;;3.00;;
69900;SDS011;57183;50.930;5.406;2022-07-18T06:46:46;4.53;;;2.20;;
69900;SDS011;57183;50.930;5.406;2022-07-18T06:49:12;7.88;;;2.75;;
69900;SDS011;57183;50.930;5.406;2022-07-18T06:51:38;7.57;;;2.97;;
69900;SDS011;57183;50.930;5.406;2022-07-18T06:54:03;9.50;;;2.97;;
69900;SDS011;57183;50.930;5.406;2022-07-18T06:56:29;5.32;;;2.40;;
69900;SDS011;57183;50.930;5.406;2022-07-18T06:58:55;4.85;;;2.63;;
69900;SDS011;57183;50.930;5.406;2022-07-18T07:01:20;8.20;;;2.92;;
69900;SDS011;57183;50.930;5.406;2022-07-18T07:03:46;7.32;;;2.92;;
69900;SDS011;57183;50.930;5.406;2022-07-18T07:06:12;8.93;;;2.80;;
69900;SDS011;57183;50.930;5.406;2022-07-18T07:08:38;6.80;;;2.53;;
69900;SDS011;57183;50.930;5.406;2022-07-18T07:11:04;6.97;;;2.30;;
69900;SDS011;57183;50.930;5.406;2022-07-18T07:13:31;7.57;;;2.45;;
69900;SDS011;57183;50.930;5.406;2022-07-18T07:15:56;4.90;;;2.33;;
69900;SDS011;57183;50.930;5.406;2022-07-18T07:18:22;8.77;;;2.47;;
69900;SDS011;57183;50.930;5.406;2022-07-18T07:20:48;5.53;;;2.65;;
69900;SDS011;57183;50.930;5.406;2022-07-18T07:23:13;6.40;;;2.50;;
69900;SDS011;57183;50.930;5.406;2022-07-18T07:25:40;7.65;;;2.08;;
69900;SDS011;57183;50.930;5.406;2022-07-18T07:28:06;10.25;;;2.20;;
69900;SDS011;57183;50.930;5.406;2022-07-18T07:30:32;4.80;;;1.63;;
69900;SDS011;57183;50.930;5.406;2022-07-18T07:32:59;8.82;;;1.92;;
69900;SDS011;57183;50.930;5.406;2022-07-18T07:35:25;6.57;;;2.03;;
69900;SDS011;57183;50.930;5.406;2022-07-18T07:37:55;5.05;;;1.63;;
69900;SDS011;57183;50.930;5.406;2022-07-18T07:40:23;10.15;;;1.80;;
69900;SDS011;57183;50.930;5.406;2022-07-18T07:42:50;3.35;;;1.50;;
69900;SDS011;57183;50.930;5.406;2022-07-18T07:45:16;6.70;;;1.90;;
69900;SDS011;57183;50.930;5.406;2022-07-18T07:47:43;6.07;;;1.83;;
69900;SDS011;57183;50.930;5.406;2022-07-18T07:50:09;2.85;;;1.40;;
69900;SDS011;57183;50.930;5.406;2022-07-18T07:52:36;7.82;;;1.95;;
69900;SDS011;57183;50.930;5.406;2022-07-18T07:55:03;11.07;;;1.88;;
69900;SDS011;57183;50.930;5.406;2022-07-18T07:57:32;6.45;;;1.35;;
69900;SDS011;57183;50.930;5.406;2022-07-18T07:59:58;5.90;;;1.60;;
69900;SDS011;57183;50.930;5.406;2022-07-18T08:02:23;5.30;;;1.52;;
69900;SDS011;57183;50.930;5.406;2022-07-18T08:04:49;4.25;;;1.95;;
69900;SDS011;57183;50.930;5.406;2022-07-18T08:07:15;9.90;;;1.88;;
69900;SDS011;57183;50.930;5.406;2022-07-18T08:09:41;4.95;;;1.75;;
69900;SDS011;57183;50.930;5.406;2022-07-18T08:12:07;3.47;;;1.30;;
69900;SDS011;57183;50.930;5.406;2022-07-18T08:14:32;5.32;;;1.88;;
69900;SDS011;57183;50.930;5.406;2022-07-18T08:17:00;4.53;;;1.73;;
69900;SDS011;57183;50.930;5.406;2022-07-18T08:19:25;3.53;;;1.35;;
69900;SDS011;57183;50.930;5.406;2022-07-18T08:21:51;5.05;;;1.50;;
69900;SDS011;57183;50.930;5.406;2022-07-18T08:24:17;3.28;;;1.35;;
69900;SDS011;57183;50.930;5.406;2022-07-18T08:26:42;5.47;;;1.27;;
69900;SDS011;57183;50.930;5.406;2022-07-18T08:29:08;7.40;;;1.38;;
69900;SDS011;57183;50.930;5.406;2022-07-18T08:31:34;5.40;;;1.25;;
69900;SDS011;57183;50.930;5.406;2022-07-18T08:34:01;3.78;;;1.00;;
69900;SDS011;57183;50.930;5.406;2022-07-18T08:36:27;5.47;;;1.13;;
69900;SDS011;57183;50.930;5.406;2022-07-18T08:38:52;6.53;;;1.20;;
69900;SDS011;57183;50.930;5.406;2022-07-18T08:41:18;4.38;;;1.00;;
69900;SDS011;57183;50.930;5.406;2022-07-18T08:43:47;4.30;;;0.95;;
69900;SDS011;57183;50.930;5.406;2022-07-18T08:46:14;3.75;;;0.90;;
69900;SDS011;57183;50.930;5.406;2022-07-18T08:48:41;2.97;;;0.73;;
69900;SDS011;57183;50.930;5.406;2022-07-18T08:51:07;4.00;;;0.85;;
69900;SDS011;57183;50.930;5.406;2022-07-18T08:53:34;2.13;;;0.70;;
69900;SDS011;57183;50.930;5.406;2022-07-18T08:56:02;2.70;;;1.15;;
69900;SDS011;57183;50.930;5.406;2022-07-18T08:58:28;3.58;;;1.00;;
69900;SDS011;57183;50.930;5.406;2022-07-18T09:00:54;3.38;;;1.27;;
69900;SDS011;57183;50.930;5.406;2022-07-18T09:03:23;4.18;;;1.00;;
69900;SDS011;57183;50.930;5.406;2022-07-18T09:06:01;2.08;;;0.98;;
69900;SDS011;57183;50.930;5.406;2022-07-18T09:08:31;4.13;;;1.00;;
69900;SDS011;57183;50.930;5.406;2022-07-18T09:10:58;4.50;;;0.77;;
69900;SDS011;57183;50.930;5.406;2022-07-18T09:13:46;0.85;;;0.73;;
69900;SDS011;57183;50.930;5.406;2022-07-18T09:16:12;3.08;;;1.48;;
69900;SDS011;57183;50.930;5.406;2022-07-18T09:18:42;1.52;;;0.90;;
69900;SDS011;57183;50.930;5.406;2022-07-18T09:21:12;2.92;;;0.77;;
69900;SDS011;57183;50.930;5.406;2022-07-18T09:23:40;1.65;;;0.77;;
69900;SDS011;57183;50.930;5.406;2022-07-18T09:26:09;1.95;;;0.77;;
69900;SDS011;57183;50.930;5.406;2022-07-18T09:28:49;3.42;;;0.80;;
69900;SDS011;57183;50.930;5.406;2022-07-18T09:31:17;1.52;;;0.70;;
69900;SDS011;57183;50.930;5.406;2022-07-18T09:33:51;2.38;;;0.80;;
69900;SDS011;57183;50.930;5.406;2022-07-18T09:36:17;2.08;;;0.70;;
69900;SDS011;57183;50.930;5.406;2022-07-18T09:38:43;2.60;;;1.10;;
69900;SDS011;57183;50.930;5.406;2022-07-18T09:41:10;2.22;;;1.10;;
69900;SDS011;57183;50.930;5.406;2022-07-18T09:43:36;2.38;;;0.88;;
69900;SDS011;57183;50.930;5.406;2022-07-18T09:46:04;4.30;;;1.10;;
69900;SDS011;57183;50.930;5.406;2022-07-18T09:48:30;3.38;;;0.90;;
69900;SDS011;57183;50.930;5.406;2022-07-18T09:50:57;2.75;;;0.88;;
69900;SDS011;57183;50.930;5.406;2022-07-18T09:53:31;1.30;;;0.82;;
69900;SDS011;57183;50.930;5.406;2022-07-18T09:58:36;1.15;;;0.90;;
69900;SDS011;57183;50.930;5.406;2022-07-18T10:01:07;2.20;;;1.30;;
69900;SDS011;57183;50.930;5.406;2022-07-18T10:03:34;3.05;;;0.73;;
69900;SDS011;57183;50.930;5.406;2022-07-18T10:06:01;1.77;;;0.80;;
69900;SDS011;57183;50.930;5.406;2022-07-18T10:08:28;3.03;;;0.80;;
69900;SDS011;57183;50.930;5.406;2022-07-18T10:10:56;2.40;;;0.88;;
69900;SDS011;57183;50.930;5.406;2022-07-18T10:13:27;1.45;;;0.75;;
69900;SDS011;57183;50.930;5.406;2022-07-18T10:15:54;3.95;;;1.02;;
69900;SDS011;57183;50.930;5.406;2022-07-18T10:18:21;4.18;;;0.73;;
69900;SDS011;57183;50.930;5.406;2022-07-18T10:20:59;2.97;;;0.80;;
69900;SDS011;57183;50.930;5.406;2022-07-18T10:23:48;5.50;;;0.90;;
69900;SDS011;57183;50.930;5.406;2022-07-18T10:26:16;1.75;;;1.08;;
69900;SDS011;57183;50.930;5.406;2022-07-18T10:33:47;2.83;;;0.68;;
69900;SDS011;57183;50.930;5.406;2022-07-18T10:57:48;2.13;;;0.98;;
69900;SDS011;57183;50.930;5.406;2022-07-18T11:00:36;1.83;;;1.00;;
69900;SDS011;57183;50.930;5.406;2022-07-18T11:03:04;1.33;;;1.20;;
69900;SDS011;57183;50.930;5.406;2022-07-18T11:15:56;1.95;;;0.85;;
69900;SDS011;57183;50.930;5.406;2022-07-18T11:18:23;1.70;;;0.80;;
69900;SDS011;57183;50.930;5.406;2022-07-18T11:20:50;2.10;;;0.80;;
69900;SDS011;57183;50.930;5.406;2022-07-18T11:23:17;3.58;;;0.90;;
69900;SDS011;57183;50.930;5.406;2022-07-18T11:25:49;2.13;;;1.08;;
69900;SDS011;57183;50.930;5.406;2022-07-18T11:28:26;1.88;;;0.85;;
69900;SDS011;57183;50.930;5.406;2022-07-18T11:31:03;3.60;;;0.90;;
69900;SDS011;57183;50.930;5.406;2022-07-18T11:33:37;2.53;;;0.82;;
69900;SDS011;57183;50.930;5.406;2022-07-18T11:36:10;1.88;;;0.90;;
69900;SDS011;57183;50.930;5.406;2022-07-18T11:38:38;1.88;;;0.93;;
69900;SDS011;57183;50.930;5.406;2022-07-18T11:41:10;3.17;;;0.88;;
69900;SDS011;57183;50.930;5.406;2022-07-18T11:43:36;3.53;;;0.77;;
69900;SDS011;57183;50.930;5.406;2022-07-18T11:48:35;1.55;;;0.88;;
69900;SDS011;57183;50.930;5.406;2022-07-18T11:51:02;5.18;;;1.10;;
69900;SDS011;57183;50.930;5.406;2022-07-18T11:53:34;4.60;;;1.35;;
69900;SDS011;57183;50.930;5.406;2022-07-18T11:56:03;1.42;;;0.90;;
69900;SDS011;57183;50.930;5.406;2022-07-18T11:58:34;4.47;;;0.88;;
69900;SDS011;57183;50.930;5.406;2022-07-18T12:01:04;4.78;;;1.02;;
69900;SDS011;57183;50.930;5.406;2022-07-18T12:03:33;1.67;;;0.90;;
69900;SDS011;57183;50.930;5.406;2022-07-18T12:06:09;0.98;;;0.80;;
69900;SDS011;57183;50.930;5.406;2022-07-18T12:08:41;4.05;;;0.90;;
69900;SDS011;57183;50.930;5.406;2022-07-18T12:11:17;2.22;;;0.85;;
69900;SDS011;57183;50.930;5.406;2022-07-18T12:21:39;4.18;;;0.90;;
69900;SDS011;57183;50.930;5.406;2022-07-18T12:26:43;1.77;;;0.80;;
69900;SDS011;57183;50.930;5.406;2022-07-18T12:29:09;0.90;;;0.80;;
69900;SDS011;57183;50.930;5.406;2022-07-18T12:31:36;4.22;;;0.85;;
69900;SDS011;57183;50.930;5.406;2022-07-18T12:34:10;2.08;;;1.10;;
69900;SDS011;57183;50.930;5.406;2022-07-18T12:36:56;2.65;;;0.80;;
69900;SDS011;57183;50.930;5.406;2022-07-18T12:39:32;2.35;;;0.90;;
69900;SDS011;57183;50.930;5.406;2022-07-18T12:41:59;2.13;;;1.10;;
69900;SDS011;57183;50.930;5.406;2022-07-18T12:44:28;1.33;;;0.88;;
69900;SDS011;57183;50.930;5.406;2022-07-18T12:46:54;1.60;;;0.75;;
69900;SDS011;57183;50.930;5.406;2022-07-18T12:49:20;2.15;;;0.73;;
69900;SDS011;57183;50.930;5.406;2022-07-18T12:51:46;2.35;;;1.10;;
69900;SDS011;57183;50.930;5.406;2022-07-18T12:54:14;3.03;;;0.90;;
69900;SDS011;57183;50.930;5.406;2022-07-18T12:56:40;2.58;;;0.70;;
69900;SDS011;57183;50.930;5.406;2022-07-18T12:59:05;1.85;;;0.88;;
69900;SDS011;57183;50.930;5.406;2022-07-18T13:01:31;3.67;;;0.93;;
69900;SDS011;57183;50.930;5.406;2022-07-18T13:03:58;2.35;;;0.90;;
69900;SDS011;57183;50.930;5.406;2022-07-18T13:06:24;1.17;;;0.70;;
69900;SDS011;57183;50.930;5.406;2022-07-18T13:08:49;1.92;;;0.75;;
69900;SDS011;57183;50.930;5.406;2022-07-18T13:11:15;2.08;;;0.80;;
69900;SDS011;57183;50.930;5.406;2022-07-18T13:13:41;2.22;;;0.90;;
69900;SDS011;57183;50.930;5.406;2022-07-18T13:16:06;3.55;;;0.88;;
69900;SDS011;57183;50.930;5.406;2022-07-18T13:18:32;3.85;;;0.88;;
69900;SDS011;57183;50.930;5.406;2022-07-18T13:20:58;4.75;;;0.75;;
69900;SDS011;57183;50.930;5.406;2022-07-18T13:23:24;1.38;;;0.65;;
69900;SDS011;57183;50.930;5.406;2022-07-18T13:25:49;2.25;;;0.70;;
69900;SDS011;57183;50.930;5.406;2022-07-18T13:28:15;1.48;;;0.88;;
69900;SDS011;57183;50.930;5.406;2022-07-18T13:30:41;6.72;;;0.95;;
69900;SDS011;57183;50.930;5.406;2022-07-18T13:33:06;3.35;;;1.08;;
69900;SDS011;57183;50.930;5.406;2022-07-18T13:35:32;1.85;;;0.80;;
69900;SDS011;57183;50.930;5.406;2022-07-18T13:37:59;6.75;;;1.23;;
69900;SDS011;57183;50.930;5.406;2022-07-18T13:40:24;2.35;;;0.80;;
69900;SDS011;57183;50.930;5.406;2022-07-18T13:42:50;1.02;;;0.80;;
69900;SDS011;57183;50.930;5.406;2022-07-18T13:45:15;2.05;;;0.80;;
69900;SDS011;57183;50.930;5.406;2022-07-18T13:47:44;2.95;;;0.90;;
69900;SDS011;57183;50.930;5.406;2022-07-18T13:50:10;1.48;;;0.80;;
69900;SDS011;57183;50.930;5.406;2022-07-18T13:52:36;1.00;;;0.90;;
69900;SDS011;57183;50.930;5.406;2022-07-18T13:55:02;1.48;;;0.82;;
69900;SDS011;57183;50.930;5.406;2022-07-18T13:57:28;2.60;;;0.90;;
69900;SDS011;57183;50.930;5.406;2022-07-18T13:59:54;3.20;;;0.70;;
69900;SDS011;57183;50.930;5.406;2022-07-18T14:02:20;1.60;;;0.80;;
69900;SDS011;57183;50.930;5.406;2022-07-18T14:04:45;2.80;;;1.00;;
69900;SDS011;57183;50.930;5.406;2022-07-18T14:07:11;3.17;;;0.80;;
69900;SDS011;57183;50.930;5.406;2022-07-18T14:09:42;1.10;;;0.73;;
69900;SDS011;57183;50.930;5.406;2022-07-18T14:12:08;2.22;;;1.05;;
69900;SDS011;57183;50.930;5.406;2022-07-18T14:14:34;2.03;;;0.73;;
69900;SDS011;57183;50.930;5.406;2022-07-18T14:16:59;3.38;;;0.70;;
69900;SDS011;57183;50.930;5.406;2022-07-18T14:19:25;3.65;;;0.82;;
69900;SDS011;57183;50.930;5.406;2022-07-18T14:21:50;0.98;;;0.80;;
69900;SDS011;57183;50.930;5.406;2022-07-18T14:24:16;4.18;;;0.75;;
69900;SDS011;57183;50.930;5.406;2022-07-18T14:26:42;5.45;;;1.00;;
69900;SDS011;57183;50.930;5.406;2022-07-18T14:29:07;3.08;;;0.80;;
69900;SDS011;57183;50.930;5.406;2022-07-18T14:31:33;2.35;;;1.00;;
69900;SDS011;57183;50.930;5.406;2022-07-18T14:33:59;1.90;;;0.90;;
69900;SDS011;57183;50.930;5.406;2022-07-18T14:36:24;2.35;;;1.00;;
69900;SDS011;57183;50.930;5.406;2022-07-18T14:38:50;4.63;;;0.98;;
69900;SDS011;57183;50.930;5.406;2022-07-18T14:41:16;3.42;;;1.00;;
69900;SDS011;57183;50.930;5.406;2022-07-18T14:43:41;3.15;;;0.70;;
69900;SDS011;57183;50.930;5.406;2022-07-18T14:46:07;1.27;;;0.80;;
69900;SDS011;57183;50.930;5.406;2022-07-18T14:48:32;1.95;;;0.70;;
69900;SDS011;57183;50.930;5.406;2022-07-18T14:50:58;2.03;;;0.80;;
69900;SDS011;57183;50.930;5.406;2022-07-18T14:53:24;7.95;;;1.38;;
69900;SDS011;57183;50.930;5.406;2022-07-18T14:55:49;2.53;;;0.73;;
69900;SDS011;57183;50.930;5.406;2022-07-18T14:58:15;2.63;;;0.90;;
69900;SDS011;57183;50.930;5.406;2022-07-18T15:00:41;1.95;;;0.70;;
69900;SDS011;57183;50.930;5.406;2022-07-18T15:03:06;2.13;;;0.68;;
69900;SDS011;57183;50.930;5.406;2022-07-18T15:05:32;3.83;;;0.60;;
69900;SDS011;57183;50.930;5.406;2022-07-18T15:07:58;1.58;;;0.80;;
69900;SDS011;57183;50.930;5.406;2022-07-18T15:10:23;9.23;;;1.15;;
69900;SDS011;57183;50.930;5.406;2022-07-18T15:12:49;4.22;;;0.93;;
69900;SDS011;57183;50.930;5.406;2022-07-18T15:15:15;2.40;;;0.73;;
69900;SDS011;57183;50.930;5.406;2022-07-18T15:17:40;1.63;;;0.70;;
69900;SDS011;57183;50.930;5.406;2022-07-18T15:20:07;2.97;;;0.82;;
69900;SDS011;57183;50.930;5.406;2022-07-18T15:22:33;2.08;;;0.70;;
69900;SDS011;57183;50.930;5.406;2022-07-18T15:24:59;1.27;;;0.75;;
69900;SDS011;57183;50.930;5.406;2022-07-18T15:27:25;1.35;;;0.80;;
69900;SDS011;57183;50.930;5.406;2022-07-18T15:29:50;2.22;;;0.80;;
69900;SDS011;57183;50.930;5.406;2022-07-18T15:32:16;1.85;;;0.80;;
69900;SDS011;57183;50.930;5.406;2022-07-18T15:34:42;0.82;;;0.70;;
69900;SDS011;57183;50.930;5.406;2022-07-18T15:37:07;1.90;;;0.60;;
69900;SDS011;57183;50.930;5.406;2022-07-18T15:39:33;1.42;;;0.70;;